sensor_id;sensor_type;location;lat;lon;timestamp;P1;durP1;ratioP1;P2;durP2;ratioP2
37477;SDS011;23334;54.316;10.182;2022-10-31T00:00:20;37.47;;;19.63;;
37477;SDS011;23334;54.316;10.182;2022-10-31T00:02:46;40.27;;;20.37;;
37477;SDS011;23334;54.316;10.182;2022-10-31T00:05:11;47.27;;;23.73;;
37477;SDS011;23334;54.316;10.182;2022-10-31T00:07:37;46.87;;;22.47;;
37477;SDS011;23334;54.316;10.182;2022-10-31T00:10:02;59.33;;;24.53;;
37477;SDS011;23334;54.316;10.182;2022-10-31T00:12:28;52.40;;;23.30;;
37477;SDS011;23334;54.316;10.182;2022-10-31T00:14:54;74.40;;;29.17;;
37477;SDS011;23334;54.316;10.182;2022-10-31T00:17:19;70.47;;;29.10;;
37477;SDS011;23334;54.316;10.182;2022-10-31T00:19:45;106.67;;;32.60;;
37477;SDS011;23334;54.316;10.182;2022-10-31T00:22:10;77.83;;;31.17;;
37477;SDS011;23334;54.316;10.182;2022-10-31T00:24:36;96.97;;;33.87;;
37477;SDS011;23334;54.316;10.182;2022-10-31T00:27:01;103.80;;;33.97;;
37477;SDS011;23334;54.316;10.182;2022-10-31T00:29:27;95.23;;;34.43;;
37477;SDS011;23334;54.316;10.182;2022-10-31T00:31:52;116.07;;;37.03;;
37477;SDS011;23334;54.316;10.182;2022-10-31T00:34:18;105.43;;;35.37;;
37477;SDS011;23334;54.316;10.182;2022-10-31T00:36:43;102.37;;;35.70;;
37477;SDS011;23334;54.316;10.182;2022-10-31T00:39:09;105.70;;;36.20;;
37477;SDS011;23334;54.316;10.182;2022-10-31T00:41:34;116.40;;;37.63;;
37477;SDS011;23334;54.316;10.182;2022-10-31T00:44:00;92.80;;;35.07;;
37477;SDS011;23334;54.316;10.182;2022-10-31T00:46:25;87.43;;;33.13;;
37477;SDS011;23334;54.316;10.182;2022-10-31T00:48:51;96.23;;;33.60;;
37477;SDS011;23334;54.316;10.182;2022-10-31T00:51:16;82.40;;;31.50;;
37477;SDS011;23334;54.316;10.182;2022-10-31T00:53:43;101.20;;;33.57;;
37477;SDS011;23334;54.316;10.182;2022-10-31T00:56:08;88.57;;;33.00;;
37477;SDS011;23334;54.316;10.182;2022-10-31T00:58:34;104.90;;;34.17;;
37477;SDS011;23334;54.316;10.182;2022-10-31T01:01:00;89.57;;;33.77;;
37477;SDS011;23334;54.316;10.182;2022-10-31T01:03:27;85.23;;;30.60;;
37477;SDS011;23334;54.316;10.182;2022-10-31T01:08:30;83.37;;;31.90;;
37477;SDS011;23334;54.316;10.182;2022-10-31T01:11:04;90.40;;;30.83;;
37477;SDS011;23334;54.316;10.182;2022-10-31T01:13:35;71.63;;;30.83;;
37477;SDS011;23334;54.316;10.182;2022-10-31T01:16:01;76.43;;;29.60;;
37477;SDS011;23334;54.316;10.182;2022-10-31T01:18:28;81.20;;;31.27;;
37477;SDS011;23334;54.316;10.182;2022-10-31T01:20:57;80.13;;;31.80;;
37477;SDS011;23334;54.316;10.182;2022-10-31T01:23:24;60.30;;;28.90;;
37477;SDS011;23334;54.316;10.182;2022-10-31T01:25:58;83.40;;;30.67;;
37477;SDS011;23334;54.316;10.182;2022-10-31T01:28:24;71.13;;;29.47;;
37477;SDS011;23334;54.316;10.182;2022-10-31T01:30:50;67.17;;;27.90;;
37477;SDS011;23334;54.316;10.182;2022-10-31T01:33:15;75.93;;;29.47;;
37477;SDS011;23334;54.316;10.182;2022-10-31T01:35:41;86.20;;;28.97;;
37477;SDS011;23334;54.316;10.182;2022-10-31T01:38:06;69.60;;;28.00;;
37477;SDS011;23334;54.316;10.182;2022-10-31T01:40:32;64.53;;;27.90;;
37477;SDS011;23334;54.316;10.182;2022-10-31T01:42:57;63.53;;;28.77;;
37477;SDS011;23334;54.316;10.182;2022-10-31T01:45:23;66.83;;;29.57;;
37477;SDS011;23334;54.316;10.182;2022-10-31T01:47:48;78.90;;;28.63;;
37477;SDS011;23334;54.316;10.182;2022-10-31T01:50:35;68.57;;;29.80;;
37477;SDS011;23334;54.316;10.182;2022-10-31T01:53:03;79.73;;;28.83;;
37477;SDS011;23334;54.316;10.182;2022-10-31T01:55:33;77.70;;;28.97;;
37477;SDS011;23334;54.316;10.182;2022-10-31T01:58:08;86.33;;;31.17;;
37477;SDS011;23334;54.316;10.182;2022-10-31T02:00:39;95.33;;;30.70;;
37477;SDS011;23334;54.316;10.182;2022-10-31T02:03:09;73.23;;;30.30;;
37477;SDS011;23334;54.316;10.182;2022-10-31T02:05:35;72.67;;;31.10;;
37477;SDS011;23334;54.316;10.182;2022-10-31T02:08:12;75.27;;;33.37;;
37477;SDS011;23334;54.316;10.182;2022-10-31T02:10:42;81.00;;;31.87;;
37477;SDS011;23334;54.316;10.182;2022-10-31T02:13:09;83.17;;;32.13;;
37477;SDS011;23334;54.316;10.182;2022-10-31T02:15:36;88.20;;;32.90;;
37477;SDS011;23334;54.316;10.182;2022-10-31T02:18:03;98.23;;;35.07;;
37477;SDS011;23334;54.316;10.182;2022-10-31T02:20:34;99.63;;;35.20;;
37477;SDS011;23334;54.316;10.182;2022-10-31T02:34:30;95.17;;;33.40;;
37477;SDS011;23334;54.316;10.182;2022-10-31T02:39:54;99.00;;;33.13;;
37477;SDS011;23334;54.316;10.182;2022-10-31T02:42:43;120.77;;;32.43;;
37477;SDS011;23334;54.316;10.182;2022-10-31T02:45:41;94.03;;;31.77;;
37477;SDS011;23334;54.316;10.182;2022-10-31T02:48:15;97.37;;;31.00;;
37477;SDS011;23334;54.316;10.182;2022-10-31T02:50:46;96.47;;;31.93;;
37477;SDS011;23334;54.316;10.182;2022-10-31T02:53:17;94.63;;;32.00;;
37477;SDS011;23334;54.316;10.182;2022-10-31T02:55:59;95.83;;;30.63;;
37477;SDS011;23334;54.316;10.182;2022-10-31T02:58:31;85.90;;;32.07;;
37477;SDS011;23334;54.316;10.182;2022-10-31T03:03:50;92.07;;;32.10;;
37477;SDS011;23334;54.316;10.182;2022-10-31T03:06:28;88.87;;;31.37;;
37477;SDS011;23334;54.316;10.182;2022-10-31T03:09:20;115.57;;;34.13;;
37477;SDS011;23334;54.316;10.182;2022-10-31T03:14:36;116.53;;;34.07;;
37477;SDS011;23334;54.316;10.182;2022-10-31T03:17:07;89.67;;;31.00;;
37477;SDS011;23334;54.316;10.182;2022-10-31T03:19:42;116.70;;;33.00;;
37477;SDS011;23334;54.316;10.182;2022-10-31T03:22:17;97.73;;;32.00;;
37477;SDS011;23334;54.316;10.182;2022-10-31T03:24:46;128.40;;;32.63;;
37477;SDS011;23334;54.316;10.182;2022-10-31T03:27:14;126.40;;;34.60;;
37477;SDS011;23334;54.316;10.182;2022-10-31T03:29:44;140.87;;;34.80;;
37477;SDS011;23334;54.316;10.182;2022-10-31T03:32:13;102.63;;;31.43;;
37477;SDS011;23334;54.316;10.182;2022-10-31T03:34:43;121.17;;;33.63;;
37477;SDS011;23334;54.316;10.182;2022-10-31T03:37:11;150.93;;;33.83;;
37477;SDS011;23334;54.316;10.182;2022-10-31T03:39:40;116.97;;;33.50;;
37477;SDS011;23334;54.316;10.182;2022-10-31T03:42:11;112.37;;;31.03;;
37477;SDS011;23334;54.316;10.182;2022-10-31T03:44:53;115.93;;;31.53;;
37477;SDS011;23334;54.316;10.182;2022-10-31T03:47:31;140.60;;;33.07;;
37477;SDS011;23334;54.316;10.182;2022-10-31T03:49:57;111.80;;;32.80;;
37477;SDS011;23334;54.316;10.182;2022-10-31T03:52:37;99.13;;;30.40;;
37477;SDS011;23334;54.316;10.182;2022-10-31T03:55:19;133.43;;;32.23;;
37477;SDS011;23334;54.316;10.182;2022-10-31T03:57:57;119.13;;;30.27;;
37477;SDS011;23334;54.316;10.182;2022-10-31T04:00:30;115.63;;;33.80;;
37477;SDS011;23334;54.316;10.182;2022-10-31T04:03:07;109.70;;;29.87;;
37477;SDS011;23334;54.316;10.182;2022-10-31T04:05:35;115.50;;;30.87;;
37477;SDS011;23334;54.316;10.182;2022-10-31T04:08:03;116.23;;;29.37;;
37477;SDS011;23334;54.316;10.182;2022-10-31T04:10:33;113.87;;;30.87;;
37477;SDS011;23334;54.316;10.182;2022-10-31T04:13:02;160.23;;;33.83;;
37477;SDS011;23334;54.316;10.182;2022-10-31T04:15:33;103.67;;;31.93;;
37477;SDS011;23334;54.316;10.182;2022-10-31T04:18:00;124.50;;;32.67;;
37477;SDS011;23334;54.316;10.182;2022-10-31T04:20:29;145.60;;;32.20;;
37477;SDS011;23334;54.316;10.182;2022-10-31T04:23:02;112.73;;;31.43;;
37477;SDS011;23334;54.316;10.182;2022-10-31T04:25:28;137.97;;;32.43;;
37477;SDS011;23334;54.316;10.182;2022-10-31T04:27:54;154.27;;;32.23;;
37477;SDS011;23334;54.316;10.182;2022-10-31T04:30:20;190.13;;;32.73;;
37477;SDS011;23334;54.316;10.182;2022-10-31T04:32:46;174.23;;;34.43;;
37477;SDS011;23334;54.316;10.182;2022-10-31T04:35:11;165.57;;;32.93;;
37477;SDS011;23334;54.316;10.182;2022-10-31T04:37:37;120.87;;;30.43;;
37477;SDS011;23334;54.316;10.182;2022-10-31T04:40:03;128.20;;;33.10;;
37477;SDS011;23334;54.316;10.182;2022-10-31T04:42:29;131.43;;;31.17;;
37477;SDS011;23334;54.316;10.182;2022-10-31T04:44:55;137.20;;;30.60;;
37477;SDS011;23334;54.316;10.182;2022-10-31T04:47:20;144.70;;;32.20;;
37477;SDS011;23334;54.316;10.182;2022-10-31T04:49:46;131.13;;;32.10;;
37477;SDS011;23334;54.316;10.182;2022-10-31T04:52:12;200.17;;;31.80;;
37477;SDS011;23334;54.316;10.182;2022-10-31T04:54:37;227.50;;;35.43;;
37477;SDS011;23334;54.316;10.182;2022-10-31T04:57:03;124.50;;;31.53;;
37477;SDS011;23334;54.316;10.182;2022-10-31T04:59:28;153.17;;;30.80;;
37477;SDS011;23334;54.316;10.182;2022-10-31T05:01:54;142.80;;;31.00;;
37477;SDS011;23334;54.316;10.182;2022-10-31T05:04:19;128.97;;;30.13;;
37477;SDS011;23334;54.316;10.182;2022-10-31T05:06:46;108.30;;;30.27;;
37477;SDS011;23334;54.316;10.182;2022-10-31T05:09:12;117.67;;;30.33;;
37477;SDS011;23334;54.316;10.182;2022-10-31T05:11:37;113.47;;;29.83;;
37477;SDS011;23334;54.316;10.182;2022-10-31T05:14:03;93.13;;;26.93;;
37477;SDS011;23334;54.316;10.182;2022-10-31T05:16:29;95.20;;;27.10;;
37477;SDS011;23334;54.316;10.182;2022-10-31T05:18:54;72.63;;;26.03;;
37477;SDS011;23334;54.316;10.182;2022-10-31T05:21:20;72.90;;;23.57;;
37477;SDS011;23334;54.316;10.182;2022-10-31T05:23:45;102.47;;;27.07;;
37477;SDS011;23334;54.316;10.182;2022-10-31T05:26:11;81.40;;;26.03;;
37477;SDS011;23334;54.316;10.182;2022-10-31T05:28:36;81.80;;;25.97;;
37477;SDS011;23334;54.316;10.182;2022-10-31T05:31:02;84.40;;;26.77;;
37477;SDS011;23334;54.316;10.182;2022-10-31T05:33:35;88.27;;;26.03;;
37477;SDS011;23334;54.316;10.182;2022-10-31T05:36:01;86.73;;;26.03;;
37477;SDS011;23334;54.316;10.182;2022-10-31T05:38:26;79.10;;;24.73;;
37477;SDS011;23334;54.316;10.182;2022-10-31T05:40:55;91.43;;;26.50;;
37477;SDS011;23334;54.316;10.182;2022-10-31T05:43:26;83.47;;;25.57;;
37477;SDS011;23334;54.316;10.182;2022-10-31T05:45:53;97.70;;;25.17;;
37477;SDS011;23334;54.316;10.182;2022-10-31T05:48:19;105.83;;;28.33;;
37477;SDS011;23334;54.316;10.182;2022-10-31T05:50:44;96.47;;;26.93;;
37477;SDS011;23334;54.316;10.182;2022-10-31T05:53:12;110.33;;;26.27;;
37477;SDS011;23334;54.316;10.182;2022-10-31T05:55:38;96.23;;;25.63;;
37477;SDS011;23334;54.316;10.182;2022-10-31T05:58:05;91.37;;;25.67;;
37477;SDS011;23334;54.316;10.182;2022-10-31T06:00:31;94.20;;;23.73;;
37477;SDS011;23334;54.316;10.182;2022-10-31T06:02:59;100.57;;;24.97;;
37477;SDS011;23334;54.316;10.182;2022-10-31T06:05:31;84.93;;;23.90;;
37477;SDS011;23334;54.316;10.182;2022-10-31T06:07:56;104.77;;;26.57;;
37477;SDS011;23334;54.316;10.182;2022-10-31T06:10:22;88.00;;;24.80;;
37477;SDS011;23334;54.316;10.182;2022-10-31T06:12:48;102.30;;;24.90;;
37477;SDS011;23334;54.316;10.182;2022-10-31T06:15:14;98.40;;;26.20;;
37477;SDS011;23334;54.316;10.182;2022-10-31T06:17:40;76.20;;;22.77;;
37477;SDS011;23334;54.316;10.182;2022-10-31T06:20:06;83.53;;;24.73;;
37477;SDS011;23334;54.316;10.182;2022-10-31T06:22:32;88.33;;;23.40;;
37477;SDS011;23334;54.316;10.182;2022-10-31T06:24:57;96.03;;;22.47;;
37477;SDS011;23334;54.316;10.182;2022-10-31T06:27:23;71.90;;;22.13;;
37477;SDS011;23334;54.316;10.182;2022-10-31T06:29:49;69.27;;;22.67;;
37477;SDS011;23334;54.316;10.182;2022-10-31T06:32:15;75.20;;;22.40;;
37477;SDS011;23334;54.316;10.182;2022-10-31T06:34:41;68.13;;;22.27;;
37477;SDS011;23334;54.316;10.182;2022-10-31T06:37:11;78.77;;;20.13;;
37477;SDS011;23334;54.316;10.182;2022-10-31T06:39:37;68.27;;;21.50;;
37477;SDS011;23334;54.316;10.182;2022-10-31T06:42:03;59.13;;;21.43;;
37477;SDS011;23334;54.316;10.182;2022-10-31T06:44:29;66.20;;;19.47;;
37477;SDS011;23334;54.316;10.182;2022-10-31T06:46:54;70.13;;;20.67;;
37477;SDS011;23334;54.316;10.182;2022-10-31T06:49:20;67.73;;;18.90;;
37477;SDS011;23334;54.316;10.182;2022-10-31T06:51:49;57.10;;;20.17;;
37477;SDS011;23334;54.316;10.182;2022-10-31T06:54:16;68.67;;;20.77;;
37477;SDS011;23334;54.316;10.182;2022-10-31T06:56:41;99.83;;;21.70;;
37477;SDS011;23334;54.316;10.182;2022-10-31T06:59:07;111.43;;;21.67;;
37477;SDS011;23334;54.316;10.182;2022-10-31T07:01:32;69.63;;;19.33;;
37477;SDS011;23334;54.316;10.182;2022-10-31T07:03:58;81.50;;;20.07;;
37477;SDS011;23334;54.316;10.182;2022-10-31T07:06:24;71.10;;;19.10;;
37477;SDS011;23334;54.316;10.182;2022-10-31T07:08:49;79.77;;;21.40;;
37477;SDS011;23334;54.316;10.182;2022-10-31T07:11:15;78.33;;;20.27;;
37477;SDS011;23334;54.316;10.182;2022-10-31T07:13:40;74.37;;;19.60;;
37477;SDS011;23334;54.316;10.182;2022-10-31T07:16:06;80.40;;;20.20;;
37477;SDS011;23334;54.316;10.182;2022-10-31T07:18:32;80.17;;;17.03;;
37477;SDS011;23334;54.316;10.182;2022-10-31T07:20:58;66.30;;;17.33;;
37477;SDS011;23334;54.316;10.182;2022-10-31T07:23:24;46.57;;;16.60;;
37477;SDS011;23334;54.316;10.182;2022-10-31T07:25:54;64.70;;;19.37;;
37477;SDS011;23334;54.316;10.182;2022-10-31T07:28:21;57.43;;;18.87;;
37477;SDS011;23334;54.316;10.182;2022-10-31T07:30:50;55.03;;;18.43;;
37477;SDS011;23334;54.316;10.182;2022-10-31T07:33:16;54.30;;;16.37;;
37477;SDS011;23334;54.316;10.182;2022-10-31T07:35:42;73.03;;;16.00;;
37477;SDS011;23334;54.316;10.182;2022-10-31T07:38:11;47.73;;;15.77;;
37477;SDS011;23334;54.316;10.182;2022-10-31T07:40:38;70.77;;;19.33;;
37477;SDS011;23334;54.316;10.182;2022-10-31T07:43:04;62.77;;;19.43;;
37477;SDS011;23334;54.316;10.182;2022-10-31T07:45:30;63.00;;;16.87;;
37477;SDS011;23334;54.316;10.182;2022-10-31T07:47:55;48.00;;;16.07;;
37477;SDS011;23334;54.316;10.182;2022-10-31T07:50:28;42.50;;;15.33;;
37477;SDS011;23334;54.316;10.182;2022-10-31T07:55:35;47.73;;;14.10;;
37477;SDS011;23334;54.316;10.182;2022-10-31T08:00:34;47.60;;;17.90;;
37477;SDS011;23334;54.316;10.182;2022-10-31T08:03:01;54.00;;;18.33;;
37477;SDS011;23334;54.316;10.182;2022-10-31T08:05:31;66.03;;;21.30;;
37477;SDS011;23334;54.316;10.182;2022-10-31T08:07:57;43.13;;;15.37;;
37477;SDS011;23334;54.316;10.182;2022-10-31T08:10:23;39.03;;;16.90;;
37477;SDS011;23334;54.316;10.182;2022-10-31T08:12:57;44.27;;;15.93;;
37477;SDS011;23334;54.316;10.182;2022-10-31T08:15:23;40.27;;;15.23;;
37477;SDS011;23334;54.316;10.182;2022-10-31T08:17:49;44.33;;;15.57;;
37477;SDS011;23334;54.316;10.182;2022-10-31T08:20:15;37.53;;;13.60;;
37477;SDS011;23334;54.316;10.182;2022-10-31T08:22:40;56.53;;;14.40;;
37477;SDS011;23334;54.316;10.182;2022-10-31T08:25:06;42.90;;;13.80;;
37477;SDS011;23334;54.316;10.182;2022-10-31T08:27:32;27.80;;;13.00;;
37477;SDS011;23334;54.316;10.182;2022-10-31T08:29:57;70.63;;;12.63;;
37477;SDS011;23334;54.316;10.182;2022-10-31T08:32:23;68.37;;;13.97;;
37477;SDS011;23334;54.316;10.182;2022-10-31T08:34:49;67.73;;;13.20;;
37477;SDS011;23334;54.316;10.182;2022-10-31T08:37:14;52.73;;;14.30;;
37477;SDS011;23334;54.316;10.182;2022-10-31T08:39:44;34.50;;;12.57;;
37477;SDS011;23334;54.316;10.182;2022-10-31T08:42:12;38.53;;;11.87;;
37477;SDS011;23334;54.316;10.182;2022-10-31T08:44:38;48.93;;;12.37;;
37477;SDS011;23334;54.316;10.182;2022-10-31T08:47:03;34.03;;;12.23;;
37477;SDS011;23334;54.316;10.182;2022-10-31T08:49:29;43.80;;;13.13;;
37477;SDS011;23334;54.316;10.182;2022-10-31T08:51:55;37.97;;;12.73;;
37477;SDS011;23334;54.316;10.182;2022-10-31T08:54:20;31.70;;;11.90;;
37477;SDS011;23334;54.316;10.182;2022-10-31T08:56:46;49.00;;;10.73;;
37477;SDS011;23334;54.316;10.182;2022-10-31T08:59:11;40.47;;;11.90;;
37477;SDS011;23334;54.316;10.182;2022-10-31T09:01:37;62.23;;;12.00;;
37477;SDS011;23334;54.316;10.182;2022-10-31T09:04:02;36.87;;;10.90;;
37477;SDS011;23334;54.316;10.182;2022-10-31T09:06:29;26.60;;;11.93;;
37477;SDS011;23334;54.316;10.182;2022-10-31T09:08:54;23.93;;;11.37;;
37477;SDS011;23334;54.316;10.182;2022-10-31T09:11:20;22.03;;;11.53;;
37477;SDS011;23334;54.316;10.182;2022-10-31T09:13:45;47.13;;;11.80;;
37477;SDS011;23334;54.316;10.182;2022-10-31T09:16:11;64.00;;;13.17;;
37477;SDS011;23334;54.316;10.182;2022-10-31T09:18:36;46.53;;;12.80;;
37477;SDS011;23334;54.316;10.182;2022-10-31T09:21:02;28.70;;;11.40;;
37477;SDS011;23334;54.316;10.182;2022-10-31T09:23:27;30.30;;;12.33;;
37477;SDS011;23334;54.316;10.182;2022-10-31T09:25:53;27.07;;;12.10;;
37477;SDS011;23334;54.316;10.182;2022-10-31T09:28:20;30.03;;;11.07;;
37477;SDS011;23334;54.316;10.182;2022-10-31T09:30:48;29.00;;;10.90;;
37477;SDS011;23334;54.316;10.182;2022-10-31T09:33:15;27.87;;;15.33;;
37477;SDS011;23334;54.316;10.182;2022-10-31T09:35:41;38.73;;;16.00;;
37477;SDS011;23334;54.316;10.182;2022-10-31T09:38:14;23.47;;;13.40;;
37477;SDS011;23334;54.316;10.182;2022-10-31T09:40:42;22.93;;;11.27;;
37477;SDS011;23334;54.316;10.182;2022-10-31T09:51:54;23.27;;;9.70;;
37477;SDS011;23334;54.316;10.182;2022-10-31T09:54:35;15.73;;;10.03;;
37477;SDS011;23334;54.316;10.182;2022-10-31T09:57:15;19.70;;;8.93;;
37477;SDS011;23334;54.316;10.182;2022-10-31T09:59:44;21.97;;;8.90;;
37477;SDS011;23334;54.316;10.182;2022-10-31T10:04:43;16.80;;;9.37;;
37477;SDS011;23334;54.316;10.182;2022-10-31T10:07:19;17.67;;;8.20;;
37477;SDS011;23334;54.316;10.182;2022-10-31T10:09:47;17.80;;;8.23;;
37477;SDS011;23334;54.316;10.182;2022-10-31T10:15:44;11.00;;;7.13;;
37477;SDS011;23334;54.316;10.182;2022-10-31T10:23:29;17.23;;;8.80;;
37477;SDS011;23334;54.316;10.182;2022-10-31T10:26:18;17.73;;;7.80;;
37477;SDS011;23334;54.316;10.182;2022-10-31T10:28:54;14.17;;;8.33;;
37477;SDS011;23334;54.316;10.182;2022-10-31T10:31:51;16.80;;;8.50;;
37477;SDS011;23334;54.316;10.182;2022-10-31T10:34:29;19.17;;;8.70;;
37477;SDS011;23334;54.316;10.182;2022-10-31T10:37:15;21.90;;;8.30;;
37477;SDS011;23334;54.316;10.182;2022-10-31T10:39:50;15.50;;;8.20;;
37477;SDS011;23334;54.316;10.182;2022-10-31T10:42:19;16.00;;;7.57;;
37477;SDS011;23334;54.316;10.182;2022-10-31T10:45:13;19.97;;;7.50;;
37477;SDS011;23334;54.316;10.182;2022-10-31T10:48:49;13.27;;;6.67;;
37477;SDS011;23334;54.316;10.182;2022-10-31T10:50:58;14.43;;;6.70;;
37477;SDS011;23334;54.316;10.182;2022-10-31T10:53:44;17.23;;;7.70;;
37477;SDS011;23334;54.316;10.182;2022-10-31T10:59:04;16.03;;;7.33;;
37477;SDS011;23334;54.316;10.182;2022-10-31T11:01:29;17.40;;;7.53;;
37477;SDS011;23334;54.316;10.182;2022-10-31T11:03:55;12.70;;;6.70;;
37477;SDS011;23334;54.316;10.182;2022-10-31T11:06:22;16.20;;;7.27;;
37477;SDS011;23334;54.316;10.182;2022-10-31T11:08:51;15.17;;;7.10;;
37477;SDS011;23334;54.316;10.182;2022-10-31T11:13:43;16.53;;;8.07;;
37477;SDS011;23334;54.316;10.182;2022-10-31T11:16:14;15.20;;;8.07;;
37477;SDS011;23334;54.316;10.182;2022-10-31T11:18:53;12.43;;;7.83;;
37477;SDS011;23334;54.316;10.182;2022-10-31T11:21:30;12.00;;;6.97;;
37477;SDS011;23334;54.316;10.182;2022-10-31T11:24:12;15.07;;;7.00;;
37477;SDS011;23334;54.316;10.182;2022-10-31T11:26:41;14.40;;;7.60;;
37477;SDS011;23334;54.316;10.182;2022-10-31T11:29:16;17.27;;;8.33;;
37477;SDS011;23334;54.316;10.182;2022-10-31T11:31:46;18.97;;;8.93;;
37477;SDS011;23334;54.316;10.182;2022-10-31T11:34:14;14.83;;;7.30;;
37477;SDS011;23334;54.316;10.182;2022-10-31T11:36:46;11.97;;;7.30;;
37477;SDS011;23334;54.316;10.182;2022-10-31T11:39:18;12.60;;;7.37;;
37477;SDS011;23334;54.316;10.182;2022-10-31T11:41:48;20.87;;;7.90;;
37477;SDS011;23334;54.316;10.182;2022-10-31T11:44:25;11.30;;;7.90;;
37477;SDS011;23334;54.316;10.182;2022-10-31T11:46:57;14.43;;;7.47;;
37477;SDS011;23334;54.316;10.182;2022-10-31T11:49:41;11.80;;;7.40;;
37477;SDS011;23334;54.316;10.182;2022-10-31T11:52:12;11.70;;;7.30;;
37477;SDS011;23334;54.316;10.182;2022-10-31T11:54:54;12.17;;;6.87;;
37477;SDS011;23334;54.316;10.182;2022-10-31T11:59:57;18.03;;;8.20;;
37477;SDS011;23334;54.316;10.182;2022-10-31T12:02:24;14.07;;;8.60;;
37477;SDS011;23334;54.316;10.182;2022-10-31T12:04:54;12.17;;;6.60;;
37477;SDS011;23334;54.316;10.182;2022-10-31T12:07:25;13.47;;;7.50;;
37477;SDS011;23334;54.316;10.182;2022-10-31T12:09:50;14.73;;;6.70;;
37477;SDS011;23334;54.316;10.182;2022-10-31T12:20:48;13.00;;;6.40;;
37477;SDS011;23334;54.316;10.182;2022-10-31T12:28:54;16.43;;;7.67;;
37477;SDS011;23334;54.316;10.182;2022-10-31T12:37:51;13.23;;;6.73;;
37477;SDS011;23334;54.316;10.182;2022-10-31T12:40:53;16.50;;;5.97;;
37477;SDS011;23334;54.316;10.182;2022-10-31T12:46:25;13.37;;;6.03;;
37477;SDS011;23334;54.316;10.182;2022-10-31T12:51:59;10.90;;;5.93;;
37477;SDS011;23334;54.316;10.182;2022-10-31T12:57:42;12.60;;;6.00;;
37477;SDS011;23334;54.316;10.182;2022-10-31T13:00:11;13.80;;;6.53;;
37477;SDS011;23334;54.316;10.182;2022-10-31T13:02:57;12.20;;;5.50;;
37477;SDS011;23334;54.316;10.182;2022-10-31T13:05:46;15.80;;;5.80;;
37477;SDS011;23334;54.316;10.182;2022-10-31T13:08:20;11.00;;;4.60;;
37477;SDS011;23334;54.316;10.182;2022-10-31T13:10:56;10.57;;;5.03;;
37477;SDS011;23334;54.316;10.182;2022-10-31T13:13:53;7.17;;;4.17;;
37477;SDS011;23334;54.316;10.182;2022-10-31T13:16:28;12.03;;;4.67;;
37477;SDS011;23334;54.316;10.182;2022-10-31T13:18:59;11.13;;;5.27;;
37477;SDS011;23334;54.316;10.182;2022-10-31T13:21:42;15.77;;;5.23;;
37477;SDS011;23334;54.316;10.182;2022-10-31T13:27:26;9.03;;;4.10;;
37477;SDS011;23334;54.316;10.182;2022-10-31T13:30:15;8.90;;;4.50;;
37477;SDS011;23334;54.316;10.182;2022-10-31T13:41:31;12.83;;;5.10;;
37477;SDS011;23334;54.316;10.182;2022-10-31T13:44:24;7.50;;;4.33;;
37477;SDS011;23334;54.316;10.182;2022-10-31T13:46:51;9.07;;;3.60;;
37477;SDS011;23334;54.316;10.182;2022-10-31T13:54:49;6.47;;;4.13;;
37477;SDS011;23334;54.316;10.182;2022-10-31T14:00:24;9.23;;;4.43;;
37477;SDS011;23334;54.316;10.182;2022-10-31T14:02:52;12.57;;;4.67;;
37477;SDS011;23334;54.316;10.182;2022-10-31T14:05:32;8.27;;;4.30;;
37477;SDS011;23334;54.316;10.182;2022-10-31T14:08:00;8.93;;;5.07;;
37477;SDS011;23334;54.316;10.182;2022-10-31T14:10:32;9.77;;;5.90;;
37477;SDS011;23334;54.316;10.182;2022-10-31T14:13:08;8.93;;;4.43;;
37477;SDS011;23334;54.316;10.182;2022-10-31T14:15:42;10.10;;;5.70;;
37477;SDS011;23334;54.316;10.182;2022-10-31T14:18:23;12.77;;;6.20;;
37477;SDS011;23334;54.316;10.182;2022-10-31T14:20:53;12.70;;;5.90;;
37477;SDS011;23334;54.316;10.182;2022-10-31T14:23:31;11.80;;;5.77;;
37477;SDS011;23334;54.316;10.182;2022-10-31T14:26:17;15.17;;;5.80;;
37477;SDS011;23334;54.316;10.182;2022-10-31T14:28:51;10.77;;;5.70;;
37477;SDS011;23334;54.316;10.182;2022-10-31T14:34:17;15.80;;;6.13;;
37477;SDS011;23334;54.316;10.182;2022-10-31T14:39:32;19.00;;;5.30;;
37477;SDS011;23334;54.316;10.182;2022-10-31T14:42:19;11.47;;;5.60;;
37477;SDS011;23334;54.316;10.182;2022-10-31T14:45:14;9.17;;;5.90;;
37477;SDS011;23334;54.316;10.182;2022-10-31T14:47:59;18.00;;;6.07;;
37477;SDS011;23334;54.316;10.182;2022-10-31T14:50:50;10.57;;;6.10;;
37477;SDS011;23334;54.316;10.182;2022-10-31T14:53:22;8.00;;;5.50;;
37477;SDS011;23334;54.316;10.182;2022-10-31T14:55:52;9.00;;;5.80;;
37477;SDS011;23334;54.316;10.182;2022-10-31T14:58:21;10.27;;;5.70;;
37477;SDS011;23334;54.316;10.182;2022-10-31T15:00:51;11.90;;;4.70;;
37477;SDS011;23334;54.316;10.182;2022-10-31T15:03:25;11.00;;;4.83;;
37477;SDS011;23334;54.316;10.182;2022-10-31T15:05:53;9.47;;;5.30;;
37477;SDS011;23334;54.316;10.182;2022-10-31T15:08:29;11.43;;;5.30;;
37477;SDS011;23334;54.316;10.182;2022-10-31T15:11:03;14.00;;;5.10;;
37477;SDS011;23334;54.316;10.182;2022-10-31T15:13:58;8.70;;;5.50;;
37477;SDS011;23334;54.316;10.182;2022-10-31T15:16:34;8.97;;;5.27;;
37477;SDS011;23334;54.316;10.182;2022-10-31T15:19:10;8.23;;;5.77;;
37477;SDS011;23334;54.316;10.182;2022-10-31T15:21:40;10.73;;;6.13;;
37477;SDS011;23334;54.316;10.182;2022-10-31T15:24:11;9.73;;;6.13;;
37477;SDS011;23334;54.316;10.182;2022-10-31T15:26:43;11.90;;;6.17;;
37477;SDS011;23334;54.316;10.182;2022-10-31T15:29:12;18.20;;;6.73;;
37477;SDS011;23334;54.316;10.182;2022-10-31T15:31:48;12.10;;;6.80;;
37477;SDS011;23334;54.316;10.182;2022-10-31T15:36:49;14.90;;;8.40;;
37477;SDS011;23334;54.316;10.182;2022-10-31T15:39:15;11.57;;;6.90;;
37477;SDS011;23334;54.316;10.182;2022-10-31T15:41:51;14.30;;;6.80;;
37477;SDS011;23334;54.316;10.182;2022-10-31T15:44:20;11.03;;;6.87;;
37477;SDS011;23334;54.316;10.182;2022-10-31T15:46:58;14.67;;;6.30;;
37477;SDS011;23334;54.316;10.182;2022-10-31T15:52:10;13.77;;;7.17;;
37477;SDS011;23334;54.316;10.182;2022-10-31T15:55:04;16.50;;;8.80;;
37477;SDS011;23334;54.316;10.182;2022-10-31T15:57:41;14.50;;;8.10;;
37477;SDS011;23334;54.316;10.182;2022-10-31T16:00:43;13.60;;;9.00;;
37477;SDS011;23334;54.316;10.182;2022-10-31T16:05:39;19.43;;;8.07;;
37477;SDS011;23334;54.316;10.182;2022-10-31T16:08:20;19.70;;;8.40;;
37477;SDS011;23334;54.316;10.182;2022-10-31T16:10:49;15.70;;;8.30;;
37477;SDS011;23334;54.316;10.182;2022-10-31T16:13:14;12.23;;;7.83;;
37477;SDS011;23334;54.316;10.182;2022-10-31T16:15:47;14.87;;;8.67;;
37477;SDS011;23334;54.316;10.182;2022-10-31T16:18:15;12.50;;;8.00;;
37477;SDS011;23334;54.316;10.182;2022-10-31T16:20:47;16.77;;;8.40;;
37477;SDS011;23334;54.316;10.182;2022-10-31T16:23:16;13.33;;;8.53;;
37477;SDS011;23334;54.316;10.182;2022-10-31T16:25:42;9.60;;;7.47;;
37477;SDS011;23334;54.316;10.182;2022-10-31T16:28:24;16.97;;;8.07;;